Soaring Guidance
Issued by NWS Reno, NV

Home | Current Version | Previous Version | Text Only | Print | Product List | Glossary On
Versions: 1 2 3 4 5 6 7 8 9 10 11 12 13
000
UXUS97 KREV 041448
SRGREV

SOARING FORECAST
NATIONAL WEATHER SERVICE - RENO NV
700 AM PST WED MAR 4 2015

THIS SOARING FORECAST IS FOR THE EASTERN SIERRA AND WESTERN NEVADA
WITH SPECIFIC INDICES FOR THE GREATER RENO AREA.

THIS FORECAST IS NOT UPDATED.

FOR CURRENT FLIGHT CONDITIONS...FORECASTS...AND ADVISORIES...ACCESS
YOUR LOCAL BRIEFING OUTLET OR FLIGHT SERVICE STATION.

*******************************************************************
LOCAL INDICES FOR RENO:                   TODAY     YESTERDAY
MAXIMUM TEMPERATURE AT RENO...(DEG F)...     52
TRIGGER TEMPERATURE...........(DEG F)...     46          39
   EXCEEDED YESTERDAY BY 18Z
MAXIMUM ALTITUDE..............(FT MSL)..   9500       13800
SOARING INDEX.................(FPM).....    225         744
FORECASTED K-INDEX.........VALID 18Z....      0           7
FORECASTED K-INDEX.........VALID 00Z....      0           0
FORECASTED LIFTED INDEX....VALID 18Z....      5           8
FORECASTED LIFTED INDEX....VALID 00Z....      4           8

AFTERNOON WINDS ALOFT FORECAST
MSL (FT) WIND/TEMP
9000  9900/-01
10000 9902/-03
12000 3506/-07
14000 3507/-12
16000 3509/-17
18000 3514/-22
24000 3620/-35
30000 0139/-49
34000 0144/-54
39000 3637/-55

SLIDE MOUNTAIN DATA:
 SLD HR 1350 M 21/-11/0715/M  /SLIDE MTN UNOFFICIAL OBSERVATION

RENO TAF FORECAST:
KRNO 041120Z 0412/0512 VRB03KT P6SM SKC
     FM042200 09007KT P6SM SKC
     FM050300 VRB03KT P6SM SKC

CARSON CITY TAF FORECAST:
KCXP 041120Z 0412/0512 VRB03KT P6SM SKC
     FM042000 09010KT P6SM SKC
     FM050200 VRB03KT P6SM SKC

OUTLOOK FOR THE RENO-CARSON CITY-MINDEN AREA:
.THURSDAY...SUNNY. HIGHS 57 TO 62. LIGHT WINDS.

SUNRISE AND SUNSET
MARCH  4 2015.........SUNRISE   628 AM PST   SUNSET   554 PM PST
MARCH  5 2015.........SUNRISE   626 AM PST   SUNSET   556 PM PST



THIS PRODUCT IS ROUTINELY PREPARED BY 700 AM AND IS
DISTRIBUTED TO THE RENO FLIGHT SERVICE STATION AS WELL AS THE
NATIONAL WEATHER SERVICE WORLD WIDE WEB HOMEPAGE AT:
       HTTP://WWW.WEATHER.GOV/RENO





USA.gov is the U.S. government's official web portal to all federal, state and local government web resources and services.